GACPA VNLT-VNLK
Flight info
| Callsign | GACPA |
|---|---|
| Flight time | 1h 8m |
| Altitude | 10000 |
| Route | VNLK VNKT VNLK |
| Aircraft | C27/L-VGDW/C |
Departure
| Time | 2025-07-27 18:42 |
|---|---|
| Airport | Langtang Airport (VNLT) |
Arrival
| Time | 2025-07-27 19:51 |
|---|---|
| Airport | Tenzing-Hillary Airport (VNLK) |
| Time | Latitude | Longitude | Altitude | Speed | Heading |
|---|---|---|---|---|---|
| 2025-07-27 18:37 | 28.20032 | 85.58540 | 12827 ft | 0 kts | 260° |
| 2025-07-27 18:39 | 28.20025 | 85.58513 | 12826 ft | 9 kts | 236° |
| 2025-07-27 18:39 | 28.19893 | 85.58632 | 12826 ft | 14 kts | 131° |
| 2025-07-27 18:40 | 28.19880 | 85.58707 | 12839 ft | 6 kts | 301° |
| 2025-07-27 18:41 | 28.19896 | 85.58669 | 12834 ft | 26 kts | 300° |
| 2025-07-27 18:41 | 28.20136 | 85.58250 | 12866 ft | 88 kts | 298° |
| 2025-07-27 18:41 | 28.20671 | 85.56638 | 13184 ft | 136 kts | 277° |
| 2025-07-27 18:42 | 28.21100 | 85.54254 | 13159 ft | 161 kts | 281° |
| 2025-07-27 18:42 | 28.21512 | 85.51617 | 12917 ft | 178 kts | 280° |
| 2025-07-27 18:43 | 28.21051 | 85.48928 | 12672 ft | 177 kts | 242° |
| 2025-07-27 18:43 | 28.19956 | 85.46168 | 11288 ft | 223 kts | 247° |
| 2025-07-27 18:44 | 28.16678 | 85.43449 | 10323 ft | 210 kts | 204° |
| 2025-07-27 18:45 | 28.15571 | 85.40857 | 9629 ft | 203 kts | 271° |
| 2025-07-27 18:45 | 28.15395 | 85.39352 | 9390 ft | 198 kts | 260° |
| 2025-07-27 18:45 | 28.14920 | 85.36428 | 8790 ft | 192 kts | 275° |
| 2025-07-27 18:46 | 28.16750 | 85.34732 | 8102 ft | 175 kts | 353° |
| 2025-07-27 18:46 | 28.17763 | 85.33330 | 8159 ft | 157 kts | 243° |
| 2025-07-27 18:47 | 28.16136 | 85.32536 | 8423 ft | 155 kts | 193° |
| 2025-07-27 18:47 | 28.14153 | 85.31165 | 7891 ft | 173 kts | 219° |
| 2025-07-27 18:48 | 28.12564 | 85.29209 | 7594 ft | 171 kts | 227° |
| 2025-07-27 18:48 | 28.10824 | 85.27319 | 7225 ft | 170 kts | 228° |
| 2025-07-27 18:49 | 28.09505 | 85.25151 | 7021 ft | 158 kts | 229° |
| 2025-07-27 18:49 | 28.08494 | 85.22871 | 6786 ft | 160 kts | 251° |
| 2025-07-27 18:50 | 28.07114 | 85.21014 | 6679 ft | 161 kts | 203° |
| 2025-07-27 18:50 | 28.05054 | 85.19946 | 6283 ft | 174 kts | 203° |
| 2025-07-27 18:51 | 28.02727 | 85.19311 | 5987 ft | 164 kts | 196° |
| 2025-07-27 18:51 | 28.00724 | 85.18443 | 6250 ft | 145 kts | 200° |
| 2025-07-27 18:52 | 27.98971 | 85.17961 | 6918 ft | 113 kts | 185° |
| 2025-07-27 18:53 | 27.96459 | 85.17516 | 7463 ft | 129 kts | 197° |
| 2025-07-27 18:53 | 27.95610 | 85.17162 | 7579 ft | 135 kts | 201° |
| 2025-07-27 18:53 | 27.93705 | 85.16091 | 7381 ft | 157 kts | 212° |
| 2025-07-27 18:54 | 27.91985 | 85.14688 | 7447 ft | 157 kts | 215° |
| 2025-07-27 18:54 | 27.89996 | 85.13464 | 7382 ft | 153 kts | 204° |
| 2025-07-27 18:55 | 27.89018 | 85.12994 | 7433 ft | 151 kts | 200° |
| 2025-07-27 18:55 | 27.86095 | 85.13018 | 7851 ft | 139 kts | 160° |
| 2025-07-27 18:56 | 27.84351 | 85.14095 | 7833 ft | 146 kts | 124° |
| 2025-07-27 18:56 | 27.83249 | 85.15941 | 8031 ft | 142 kts | 126° |
| 2025-07-27 18:57 | 27.81989 | 85.17804 | 7971 ft | 152 kts | 121° |
| 2025-07-27 18:57 | 27.80756 | 85.19797 | 7857 ft | 159 kts | 127° |
| 2025-07-27 18:58 | 27.79256 | 85.21627 | 7929 ft | 146 kts | 128° |
| 2025-07-27 18:58 | 27.77793 | 85.23258 | 7956 ft | 156 kts | 133° |
| 2025-07-27 18:59 | 27.76419 | 85.25011 | 8074 ft | 154 kts | 131° |
| 2025-07-27 18:59 | 27.75078 | 85.26841 | 8073 ft | 155 kts | 125° |
| 2025-07-27 19:00 | 27.73131 | 85.29448 | 8150 ft | 154 kts | 126° |
| 2025-07-27 19:00 | 27.72513 | 85.30337 | 8389 ft | 140 kts | 127° |
| 2025-07-27 19:01 | 27.71224 | 85.31927 | 8581 ft | 152 kts | 128° |
| 2025-07-27 19:01 | 27.69771 | 85.33810 | 8466 ft | 165 kts | 129° |
| 2025-07-27 19:02 | 27.68528 | 85.35993 | 8169 ft | 166 kts | 116° |
| 2025-07-27 19:02 | 27.67496 | 85.38176 | 8145 ft | 156 kts | 113° |
| 2025-07-27 19:03 | 27.66586 | 85.40427 | 7976 ft | 162 kts | 112° |
| 2025-07-27 19:03 | 27.65655 | 85.42699 | 7875 ft | 159 kts | 112° |
| 2025-07-27 19:04 | 27.64334 | 85.45944 | 8071 ft | 145 kts | 115° |
| 2025-07-27 19:04 | 27.63858 | 85.46958 | 8089 ft | 149 kts | 115° |
| 2025-07-27 19:05 | 27.62820 | 85.49044 | 8116 ft | 150 kts | 115° |
| 2025-07-27 19:05 | 27.61927 | 85.51030 | 8609 ft | 142 kts | 118° |
| 2025-07-27 19:06 | 27.60748 | 85.52867 | 8917 ft | 146 kts | 124° |
| 2025-07-27 19:06 | 27.59492 | 85.54709 | 9151 ft | 152 kts | 123° |
| 2025-07-27 19:07 | 27.58081 | 85.56576 | 9285 ft | 156 kts | 132° |
| 2025-07-27 19:07 | 27.56568 | 85.58221 | 9626 ft | 150 kts | 131° |
| 2025-07-27 19:08 | 27.54819 | 85.61034 | 10110 ft | 140 kts | 110° |
| 2025-07-27 19:08 | 27.54431 | 85.62074 | 10127 ft | 148 kts | 110° |
| 2025-07-27 19:09 | 27.53578 | 85.64255 | 10093 ft | 153 kts | 113° |
| 2025-07-27 19:10 | 27.51673 | 85.67215 | 10023 ft | 158 kts | 130° |
| 2025-07-27 19:10 | 27.51007 | 85.68201 | 9969 ft | 159 kts | 120° |
| 2025-07-27 19:10 | 27.50233 | 85.70399 | 10158 ft | 139 kts | 94° |
| 2025-07-27 19:11 | 27.50151 | 85.72649 | 10121 ft | 149 kts | 87° |
| 2025-07-27 19:11 | 27.49940 | 85.74983 | 10067 ft | 153 kts | 94° |
| 2025-07-27 19:12 | 27.48475 | 85.78089 | 10050 ft | 154 kts | 129° |
| 2025-07-27 19:12 | 27.47770 | 85.78995 | 10082 ft | 153 kts | 131° |
| 2025-07-27 19:13 | 27.45745 | 85.81722 | 9918 ft | 161 kts | 105° |
| 2025-07-27 19:13 | 27.45658 | 85.82966 | 9936 ft | 152 kts | 88° |
| 2025-07-27 19:14 | 27.45524 | 85.85250 | 10225 ft | 151 kts | 99° |
| 2025-07-27 19:14 | 27.44957 | 85.87593 | 10279 ft | 158 kts | 103° |
| 2025-07-27 19:15 | 27.44287 | 85.89793 | 10700 ft | 145 kts | 112° |
| 2025-07-27 19:15 | 27.43129 | 85.91727 | 10800 ft | 150 kts | 103° |
| 2025-07-27 19:16 | 27.43041 | 85.93959 | 11156 ft | 141 kts | 96° |
| 2025-07-27 19:16 | 27.42899 | 85.96240 | 11255 ft | 149 kts | 85° |
| 2025-07-27 19:17 | 27.43038 | 85.98519 | 11562 ft | 140 kts | 90° |
| 2025-07-27 19:17 | 27.42663 | 86.00665 | 11655 ft | 152 kts | 117° |
| 2025-07-27 19:18 | 27.42224 | 86.02854 | 11944 ft | 139 kts | 97° |
| 2025-07-27 19:18 | 27.41863 | 86.05160 | 11720 ft | 154 kts | 101° |
| 2025-07-27 19:19 | 27.41735 | 86.07391 | 12034 ft | 133 kts | 88° |
| 2025-07-27 19:20 | 27.41767 | 86.10616 | 12090 ft | 147 kts | 92° |
| 2025-07-27 19:20 | 27.41603 | 86.13047 | 11892 ft | 156 kts | 98° |
| 2025-07-27 19:20 | 27.41398 | 86.14249 | 11915 ft | 155 kts | 101° |
| 2025-07-27 19:21 | 27.40942 | 86.16616 | 11951 ft | 156 kts | 101° |
| 2025-07-27 19:21 | 27.40556 | 86.18957 | 12038 ft | 146 kts | 96° |
| 2025-07-27 19:22 | 27.40525 | 86.21336 | 11870 ft | 153 kts | 88° |
| 2025-07-27 19:22 | 27.40600 | 86.23655 | 11979 ft | 146 kts | 90° |
| 2025-07-27 19:23 | 27.40611 | 86.25964 | 11960 ft | 149 kts | 85° |
| 2025-07-27 19:23 | 27.40631 | 86.28323 | 11871 ft | 153 kts | 96° |
| 2025-07-27 19:24 | 27.40154 | 86.31816 | 11839 ft | 151 kts | 98° |
| 2025-07-27 19:24 | 27.39957 | 86.33013 | 11651 ft | 160 kts | 101° |
| 2025-07-27 19:25 | 27.39703 | 86.35440 | 11656 ft | 149 kts | 89° |
| 2025-07-27 19:25 | 27.39918 | 86.37779 | 11654 ft | 148 kts | 82° |
| 2025-07-27 19:26 | 27.40132 | 86.39721 | 12202 ft | 127 kts | 89° |
| 2025-07-27 19:26 | 27.39972 | 86.41856 | 11898 ft | 131 kts | 95° |
| 2025-07-27 19:27 | 27.39692 | 86.43865 | 11622 ft | 127 kts | 101° |
| 2025-07-27 19:27 | 27.39509 | 86.44818 | 11644 ft | 122 kts | 101° |
| 2025-07-27 19:28 | 27.39908 | 86.49223 | 11074 ft | 158 kts | 73° |
| 2025-07-27 19:28 | 27.40129 | 86.50393 | 11141 ft | 147 kts | 81° |
| 2025-07-27 19:29 | 27.40455 | 86.52649 | 11049 ft | 148 kts | 80° |
| 2025-07-27 19:29 | 27.40720 | 86.54974 | 10902 ft | 153 kts | 82° |
| 2025-07-27 19:30 | 27.40846 | 86.57374 | 10615 ft | 164 kts | 86° |
| 2025-07-27 19:30 | 27.40948 | 86.59908 | 10467 ft | 157 kts | 91° |
| 2025-07-27 19:31 | 27.40269 | 86.62317 | 10125 ft | 173 kts | 121° |
| 2025-07-27 19:31 | 27.38896 | 86.64357 | 10149 ft | 141 kts | 86° |
| 2025-07-27 19:32 | 27.40450 | 86.67045 | 10345 ft | 138 kts | 55° |
| 2025-07-27 19:32 | 27.41015 | 86.68027 | 10109 ft | 155 kts | 57° |
| 2025-07-27 19:33 | 27.42692 | 86.70988 | 10151 ft | 145 kts | 60° |
| 2025-07-27 19:33 | 27.43377 | 86.71739 | 10167 ft | 146 kts | 25° |
| 2025-07-27 19:34 | 27.45272 | 86.72435 | 10448 ft | 126 kts | 15° |
| 2025-07-27 19:34 | 27.47147 | 86.72246 | 10425 ft | 146 kts | 349° |
| 2025-07-27 19:35 | 27.49122 | 86.71626 | 10471 ft | 147 kts | 342° |
| 2025-07-27 19:35 | 27.51084 | 86.70953 | 10524 ft | 146 kts | 349° |
| 2025-07-27 19:36 | 27.54061 | 86.70248 | 10691 ft | 147 kts | 349° |
| 2025-07-27 19:36 | 27.55058 | 86.69978 | 10676 ft | 150 kts | 349° |
| 2025-07-27 19:37 | 27.57169 | 86.69310 | 10442 ft | 158 kts | 349° |
| 2025-07-27 19:37 | 27.59238 | 86.68981 | 10557 ft | 148 kts | 355° |
| 2025-07-27 19:38 | 27.61322 | 86.69005 | 10688 ft | 135 kts | 12° |
| 2025-07-27 19:38 | 27.63195 | 86.69441 | 10695 ft | 147 kts | 21° |
| 2025-07-27 19:39 | 27.65137 | 86.70084 | 10725 ft | 142 kts | 16° |
| 2025-07-27 19:39 | 27.67012 | 86.70407 | 10424 ft | 129 kts | 4° |
| 2025-07-27 19:40 | 27.67912 | 86.72192 | 10006 ft | 104 kts | 77° |
| 2025-07-27 19:40 | 27.68433 | 86.72443 | 9930 ft | 114 kts | 335° |
| 2025-07-27 19:41 | 27.67974 | 86.71280 | 8965 ft | 134 kts | 174° |
| 2025-07-27 19:41 | 27.67015 | 86.70911 | 8578 ft | 96 kts | 1° |
| 2025-07-27 19:42 | 27.67268 | 86.71118 | 8077 ft | 143 kts | 229° |
| 2025-07-27 19:42 | 27.65795 | 86.70333 | 8786 ft | 107 kts | 94° |
| 2025-07-27 19:43 | 27.67042 | 86.70795 | 8104 ft | 86 kts | 16° |
| 2025-07-27 19:43 | 27.67938 | 86.71351 | 8700 ft | 76 kts | 71° |
| 2025-07-27 19:44 | 27.68748 | 86.72601 | 9398 ft | 69 kts | 350° |
| 2025-07-27 19:44 | 27.69285 | 86.72296 | 9680 ft | 90 kts | 341° |
| 2025-07-27 19:45 | 27.70155 | 86.71529 | 10728 ft | 72 kts | 286° |
| 2025-07-27 19:45 | 27.69305 | 86.70091 | 11002 ft | 136 kts | 223° |
| 2025-07-27 19:46 | 27.67866 | 86.69073 | 11678 ft | 135 kts | 221° |
| 2025-07-27 19:46 | 27.66616 | 86.68820 | 12073 ft | 80 kts | 106° |
| 2025-07-27 19:47 | 27.67501 | 86.68174 | 11597 ft | 90 kts | 273° |
| 2025-07-27 19:47 | 27.66252 | 86.68773 | 10665 ft | 139 kts | 141° |
| 2025-07-27 19:48 | 27.65885 | 86.69632 | 10331 ft | 89 kts | 1° |
| 2025-07-27 19:48 | 27.66896 | 86.70072 | 9858 ft | 84 kts | 30° |
| 2025-07-27 19:49 | 27.67719 | 86.71027 | 9105 ft | 88 kts | 60° |
| 2025-07-27 19:49 | 27.68194 | 86.72008 | 8928 ft | 60 kts | 57° |
| 2025-07-27 19:50 | 27.68622 | 86.72752 | 9332 ft | 44 kts | 63° |
| 2025-07-27 19:50 | 27.68232 | 86.72247 | 9318 ft | 116 kts | 269° |
| 2025-07-27 19:51 | 27.68231 | 86.72231 | 9317 ft | 117 kts | 269° |